Detall de PIREP

Printer-friendly versionPDF version

[2015/08/27 05:55:00]
Flight IATA:CT3239
Pilot Number:042
Company ICAO:CAT
Aircraft Type:B738/F
PAX:110
Departing Airport: EVRA
Destination Airport: LEPA
Alternate Airport:LEBL
Online: VATSIM
Route:ASKOR Y343 NERIG B704 GOMED M994 ODLOT P861 RASAN UP861 RUDAP UP31 DOSEL UM736 BZO UM984 PADKO UY38 VATIR UN852 VERSO UL129 LUNIK
Flight Level:F360
No Slew and time accel
No pause
Crash detect
Detect pilot in Cockpit between each 30 and 45 minutes
05:55 Zero fuel Weight: 136056 Lbs, Fuel Weight: 46056 Lbs
05:55 VATSIM:EVRA 270520Z 19006KT CAVOK 16/13 Q1016 NOSIG
05:55 VATSIM:LEPA 270530Z 05003KT 010V080 CAVOK 19/17 Q1016 NOSIG
06:03 Parking Brakes off
06:08 Take-off
06:08 Take off Weight: 181529 Lbs
06:08 Wind: 180º @ 008 Knots Heading: 005º
06:08 POS N56º 56´ 00´´ E023º 58´ 21´´
06:08 Flaps:4 at 168 Knots
06:08 Gear Up: 167 Knots
06:08 Flaps:3 at 171 Knots
06:09 Flaps:2 at 202 Knots
06:09 Flaps:1 at 211 Knots
06:09 Flaps:0 at 232 Knots
06:23 Wind:272º@023 Knots Heading: 224º Ground Speed: 451 Knots Altitude 24865 ft
06:33 TOC
06:33 Fuel Weight: 40277 Lb
06:38 Wind:267º@042 Knots Heading: 224º Ground Speed: 431 Knots Altitude 36076 ft
06:53 Wind:259º@044 Knots Heading: 223º Ground Speed: 426 Knots Altitude 36046 ft
07:08 Wind:264º@047 Knots Heading: 222º Ground Speed: 426 Knots Altitude 36026 ft
07:23 Wind:263º@048 Knots Heading: 225º Ground Speed: 425 Knots Altitude 36079 ft
07:38 Wind:265º@042 Knots Heading: 210º Ground Speed: 439 Knots Altitude 36108 ft
07:53 Wind:267º@033 Knots Heading: 186º Ground Speed: 455 Knots Altitude 36161 ft
08:08 Wind:264º@031 Knots Heading: 244º Ground Speed: 427 Knots Altitude 36299 ft
08:23 Wind:273º@023 Knots Heading: 216º Ground Speed: 443 Knots Altitude 36167 ft
08:38 Wind:306º@013 Knots Heading: 249º Ground Speed: 449 Knots Altitude 36115 ft
08:53 Wind:302º@013 Knots Heading: 221º Ground Speed: 455 Knots Altitude 36102 ft
09:03 TOD
09:03 Fuel Weight: 26241 Lb
09:08 Wind:319º@013 Knots Heading: 202º Ground Speed: 437 Knots Altitude 25997 ft
09:20 Flaps:1 at 235 Knots
09:23 Wind:325º@002 Knots Heading: 274º Ground Speed: 255 Knots Altitude 5223 ft
09:23 Flaps:2 at 239 Knots
09:24 Flaps:3 at 237 Knots
09:24 Flaps:4 at 198 Knots
09:25 Gear Down: 191 Knots
09:26 Flaps:5 at 187 Knots
09:26 Flaps:6 at 184 Knots
09:26 Flaps:7 at 175 Knots
09:26 Flaps:8 at 156 Knots
09:29 TouchDown:Rate -92 ft/min Speed: 144 Knots
09:29 VATSIM:LEPA 270900Z 00000KT CAVOK 29/18 Q1017 NOSIG
09:29 Land
09:29 Wind:120º@000 Knots
09:29 Heading: 239º
09:29 Flight Duration: 03:21
09:29 Landing Weight: 161045 Lbs
09:29 POS N39º 32´ 56´´ E002º 44´ 52´´
09:33 Parking brakes on
09:33 Block to Block Duration: 03:30
09:33 Final Fuel: 24746 Lbls
09:33 Spent Fuel: 21309 Lbls
09:33 Flight Length: 1401 NM
09:33 TOD Land Length: 141 NM

Exportar CSV

Powered by Drupal - Modified by Danger4k